| time (UTC) | temp C | wind direction | speed KPH | gust KPH | rain 1hr cm | rain 24hr cm | rain mn cm | humidity % | barometer mb |
| 20260906235030 | 26 | 213 | 11.3 | 14.5 | 0.00 | 0.00 | 0.00 | 25 | 1012.2 |
| 20260906234530 | 26 | 225 | 12.9 | 12.9 | 0.00 | 0.00 | 0.00 | 25 | 1012.5 |
| 20260906234025 | 26 | 223 | 11.3 | 14.5 | 0.00 | 0.00 | 0.00 | 24 | 1012.2 |
| 20260906233524 | 26 | 210 | 11.3 | 14.5 | 0.00 | 0.00 | 0.00 | 25 | 1012.3 |
| 20260906233023 | 27 | 207 | 14.5 | 16.1 | 0.00 | 0.00 | 0.00 | 24 | 1012.2 |
| 20260906232518 | 27 | 225 | 19.3 | 22.5 | 0.00 | 0.00 | 0.00 | 23 | 1012.2 |
| 20260906232014 | 27 | 201 | 12.9 | 17.7 | 0.00 | 0.00 | 0.00 | 24 | 1012.2 |
| 20260906231508 | 27 | 224 | 17.7 | 20.9 | 0.00 | 0.00 | 0.00 | 23 | 1012.1 |
| 20260906231003 | 27 | 238 | 12.9 | 16.1 | 0.00 | 0.00 | 0.00 | 22 | 1012.3 |
| 20260906230502 | 27 | 221 | 11.3 | 14.5 | 0.00 | 0.00 | 0.00 | 24 | 1012.1 |
| 20260906230001 | 27 | 208 | 12.9 | 16.1 | 0.00 | 0.00 | 0.00 | 23 | 1012.2 |
| 20260906225455 | 27 | 221 | 14.5 | 16.1 | 0.00 | 0.00 | 0.00 | 22 | 1012.2 |
| 20260906224952 | 27 | 230 | 19.3 | 20.9 | 0.00 | 0.00 | 0.00 | 22 | 1012.2 |
| 20260906224448 | 27 | 222 | 16.1 | 17.7 | 0.00 | 0.00 | 0.00 | 21 | 1012.0 |
| 20260906223944 | 27 | 216 | 19.3 | 22.5 | 0.00 | 0.00 | 0.00 | 21 | 1012.1 |
| 20260906223439 | 28 | 233 | 11.3 | 14.5 | 0.00 | 0.00 | 0.00 | 21 | 1012.2 |
| 20260906222937 | 28 | 226 | 14.5 | 20.9 | 0.00 | 0.00 | 0.00 | 21 | 1012.2 |
| 20260906222432 | 28 | 215 | 14.5 | 16.1 | 0.00 | 0.00 | 0.00 | 21 | 1012.2 |
| 20260906221929 | 28 | 231 | 8.0 | 9.7 | 0.00 | 0.00 | 0.00 | 20 | 1012.5 |
| 20260906221429 | 28 | 228 | 4.8 | 8.0 | 0.00 | 0.00 | 0.00 | 21 | 1012.6 |
| 20260906220924 | 29 | 218 | 4.8 | 8.0 | 0.00 | 0.00 | 0.00 | 21 | 1012.5 |
| 20260906220420 | 28 | 256 | 4.8 | 4.8 | 0.00 | 0.00 | 0.00 | 21 | 1012.3 |
| 20260906215918 | 29 | 241 | 11.3 | 14.5 | 0.00 | 0.00 | 0.00 | 21 | 1012.2 |
| 20260906215413 | 29 | 247 | 4.8 | 4.8 | 0.00 | 0.00 | 0.00 | 22 | 1012.3 |
| 20260906214912 | 30 | 228 | 6.4 | 8.0 | 0.00 | 0.00 | 0.00 | 22 | 1012.3 |
| 20260906214411 | 29 | 226 | 9.7 | 12.9 | 0.00 | 0.00 | 0.00 | 22 | 1012.5 |
| 20260906213905 | 29 | 207 | 8.0 | 12.9 | 0.00 | 0.00 | 0.00 | 22 | 1012.5 |
| 20260906213405 | 29 | 250 | 4.8 | 4.8 | 0.00 | 0.00 | 0.00 | 23 | 1012.7 |
| 20260906212902 | 28 | 238 | 4.8 | 4.8 | 0.00 | 0.00 | 0.00 | 22 | 1012.3 |
| 20260906212358 | 27 | 235 | 14.5 | 14.5 | 0.00 | 0.00 | 0.00 | 23 | 1012.7 |
| 20260906211857 | 28 | 214 | 14.5 | 14.5 | 0.00 | 0.00 | 0.00 | 23 | 1013.0 |
| 20260906211353 | 28 | 217 | 14.5 | 17.7 | 0.00 | 0.00 | 0.00 | 23 | 1013.1 |
| 20260906210848 | 28 | 219 | 14.5 | 17.7 | 0.00 | 0.00 | 0.00 | 22 | 1012.9 |
| 20260906210343 | 29 | 219 | 22.5 | 25.7 | 0.00 | 0.00 | 0.00 | 21 | 1013.3 |
| 20260906205838 | 28 | 221 | 24.1 | 27.4 | 0.00 | 0.00 | 0.00 | 21 | 1013.1 |
| 20260906205334 | 29 | 235 | 9.7 | 11.3 | 0.00 | 0.00 | 0.00 | 22 | 1013.4 |
| 20260906204830 | 29 | 229 | 11.3 | 12.9 | 0.00 | 0.00 | 0.00 | 23 | 1013.3 |
| 20260906204329 | 29 | 218 | 11.3 | 14.5 | 0.00 | 0.00 | 0.00 | 24 | 1013.5 |
| 20260906203828 | 28 | 236 | 4.8 | 8.0 | 0.00 | 0.00 | 0.00 | 26 | 1013.6 |
| 20260906203324 | 28 | 214 | 8.0 | 9.7 | 0.00 | 0.00 | 0.00 | 23 | 1013.5 |
| 20260906202820 | 28 | 243 | 3.2 | 4.8 | 0.00 | 0.00 | 0.00 | 26 | 1013.4 |
| 20260906202320 | 29 | 247 | 3.2 | 3.2 | 0.00 | 0.00 | 0.00 | 28 | 1013.5 |
| 20260906201815 | 28 | 316 | 4.8 | 4.8 | 0.00 | 0.00 | 0.00 | 28 | 1013.6 |
| 20260906201314 | 28 | 237 | 8.0 | 11.3 | 0.00 | 0.00 | 0.00 | 22 | 1013.5 |
| 20260906200810 | 28 | 228 | 16.1 | 20.9 | 0.00 | 0.00 | 0.00 | 23 | 1013.6 |
| 20260906200306 | 28 | 210 | 16.1 | 27.4 | 0.00 | 0.00 | 0.00 | 22 | 1013.5 |
| 20260906195801 | 28 | 208 | 17.7 | 20.9 | 0.00 | 0.00 | 0.00 | 22 | 1013.7 |
| 20260906195257 | 28 | 232 | 12.9 | 12.9 | 0.00 | 0.00 | 0.00 | 23 | 1013.8 |
| 20260906194753 | 28 | 227 | 4.8 | 4.8 | 0.00 | 0.00 | 0.00 | 25 | 1013.7 |
| 20260906194248 | 28 | 242 | 11.3 | 11.3 | 0.00 | 0.00 | 0.00 | 26 | 1013.5 |
| 20260906193743 | 28 | 231 | 8.0 | 8.0 | 0.00 | 0.00 | 0.00 | 25 | 1013.6 |
| 20260906193237 | 27 | 228 | 8.0 | 9.7 | 0.00 | 0.00 | 0.00 | 22 | 1013.7 |
| 20260906192728 | 27 | 229 | 8.0 | 11.3 | 0.00 | 0.00 | 0.00 | 29 | 1013.6 |
| 20260906192227 | 27 | 247 | 4.8 | 4.8 | 0.00 | 0.00 | 0.00 | 33 | 1014.1 |
| 20260906191721 | 27 | 241 | 1.6 | 1.6 | 0.00 | 0.00 | 0.00 | 33 | 1013.9 |
| 20260906191221 | 26 | 198 | 8.0 | 9.7 | 0.00 | 0.00 | 0.00 | 34 | 1014.1 |
| 20260906190716 | 26 | 337 | 8.0 | 8.0 | 0.00 | 0.00 | 0.00 | 34 | 1014.3 |
| 20260906190210 | 26 | 297 | 6.4 | 8.0 | 0.00 | 0.00 | 0.00 | 36 | 1014.3 |
| 20260906185709 | 26 | 273 | 3.2 | 4.8 | 0.00 | 0.00 | 0.00 | 36 | 1014.6 |
| 20260906185208 | 25 | 249 | 3.2 | 3.2 | 0.00 | 0.00 | 0.00 | 41 | 1014.8 |
| 20260906184703 | 25 | 283 | 1.6 | 1.6 | 0.00 | 0.00 | 0.00 | 41 | 1014.9 |
| 20260906184159 | 24 | 287 | 4.8 | 4.8 | 0.00 | 0.00 | 0.00 | 43 | 1015.0 |
| 20260906183655 | 24 | 240 | 3.2 | 3.2 | 0.00 | 0.00 | 0.00 | 41 | 1015.0 |
| 20260906183151 | 24 | 245 | 4.8 | 8.0 | 0.00 | 0.00 | 0.00 | 43 | 1015.2 |
| 20260906182650 | 23 | 297 | 1.6 | 1.6 | 0.00 | 0.00 | 0.00 | 44 | 1015.2 |
| 20260906182146 | 23 | 291 | 3.2 | 4.8 | 0.00 | 0.00 | 0.00 | 44 | 1015.2 |
| 20260906181642 | 23 | 354 | 4.8 | 4.8 | 0.00 | 0.00 | 0.00 | 45 | 1015.2 |
| 20260906181138 | 22 | 347 | 4.8 | 8.0 | 0.00 | 0.00 | 0.00 | 48 | 1015.2 |
| 20260906180632 | 22 | 292 | 3.2 | 4.8 | 0.00 | 0.00 | 0.00 | 47 | 1015.6 |
| 20260906180127 | 22 | 314 | 3.2 | 3.2 | 0.00 | 0.00 | 0.00 | 49 | 1015.7 |
| 20260906175625 | 22 | 240 | 1.6 | 3.2 | 0.00 | 0.00 | 0.00 | 48 | 1015.7 |
| 20260906175120 | 21 | 276 | 3.2 | 3.2 | 0.00 | 0.00 | 0.00 | 51 | 1016.2 |
| 20260906174618 | 21 | 349 | 6.4 | 9.7 | 0.00 | 0.00 | 0.00 | 50 | 1015.8 |
| 20260906174113 | 21 | 252 | 3.2 | 3.2 | 0.00 | 0.00 | 0.00 | 52 | 1016.0 |
| 20260906173608 | 21 | 269 | 4.8 | 4.8 | 0.00 | 0.00 | 0.00 | 52 | 1016.1 |
| 20260906173104 | 21 | 239 | 0.0 | 1.6 | 0.00 | 0.00 | 0.00 | 52 | 1016.1 |
| 20260906172558 | 21 | 229 | 1.6 | 1.6 | 0.00 | 0.00 | 0.00 | 52 | 1016.4 |
| 20260906172054 | 20 | 249 | 3.2 | 3.2 | 0.00 | 0.00 | 0.00 | 52 | 1016.2 |
| 20260906171553 | 20 | 345 | 1.6 | 4.8 | 0.00 | 0.00 | 0.00 | 52 | 1016.5 |
| 20260906171049 | 20 | 346 | 4.8 | 8.0 | 0.00 | 0.00 | 0.00 | 54 | 1016.4 |
| 20260906170544 | 20 | 329 | 6.4 | 8.0 | 0.00 | 0.00 | 0.00 | 54 | 1016.5 |
| 20260906170043 | 20 | 235 | 0.0 | 1.6 | 0.00 | 0.00 | 0.00 | 54 | 1016.5 |
| 20260906165541 | 20 | 233 | 1.6 | 3.2 | 0.00 | 0.00 | 0.00 | 51 | 1016.6 |
| 20260906165035 | 19 | 223 | 1.6 | 1.6 | 0.00 | 0.00 | 0.00 | 54 | 1016.5 |
| 20260906164534 | 18 | 255 | 3.2 | 4.8 | 0.00 | 0.00 | 0.00 | 57 | 1016.6 |
| 20260906164031 | 18 | 309 | 4.8 | 4.8 | 0.00 | 0.00 | 0.00 | 57 | 1016.6 |
| 20260906163526 | 18 | 282 | 3.2 | 3.2 | 0.00 | 0.00 | 0.00 | 58 | 1016.6 |
| 20260906163021 | 18 | 311 | 4.8 | 4.8 | 0.00 | 0.00 | 0.00 | 56 | 1016.5 |
| 20260906162518 | 18 | 151 | 1.6 | 1.6 | 0.00 | 0.00 | 0.00 | 58 | 1016.7 |
| 20260906162013 | 18 | 163 | 4.8 | 4.8 | 0.00 | 0.00 | 0.00 | 58 | 1016.7 |
| 20260906161508 | 17 | 141 | 4.8 | 4.8 | 0.00 | 0.00 | 0.00 | 60 | 1016.8 |
| 20260906161007 | 17 | 117 | 4.8 | 4.8 | 0.00 | 0.00 | 0.00 | 60 | 1016.8 |
| 20260906160501 | 18 | 189 | 1.6 | 1.6 | 0.00 | 0.00 | 0.00 | 60 | 1016.9 |
| 20260906155958 | 18 | 170 | 1.6 | 1.6 | 0.00 | 0.00 | 0.00 | 58 | 1016.9 |
| 20260906155457 | 17 | 201 | 0.0 | 1.6 | 0.00 | 0.00 | 0.00 | 58 | 1017.1 |
| 20260906154953 | 17 | 130 | 0.0 | 0.0 | 0.00 | 0.00 | 0.00 | 61 | 1017.2 |
| 20260906154449 | 17 | 130 | 1.6 | 3.2 | 0.00 | 0.00 | 0.00 | 60 | 1017.2 |
| 20260906153947 | 17 | 172 | 3.2 | 3.2 | 0.00 | 0.00 | 0.00 | 61 | 1017.2 |
| 20260906153446 | 17 | 186 | 3.2 | 4.8 | 0.00 | 0.00 | 0.00 | 60 | 1017.2 |
| 20260906152942 | 17 | 209 | 1.6 | 1.6 | 0.00 | 0.00 | 0.00 | 62 | 1017.3 |
| 20260906152441 | 16 | 215 | 1.6 | 1.6 | 0.00 | 0.00 | 0.00 | 62 | 1017.5 |
| 20260906151941 | 16 | 112 | 1.6 | 1.6 | 0.00 | 0.00 | 0.00 | 63 | 1017.3 |
| 20260906151436 | 16 | 110 | 0.0 | 0.0 | 0.00 | 0.00 | 0.00 | 64 | 1017.4 |
| 20260906150932 | 15 | 110 | 3.2 | 3.2 | 0.00 | 0.00 | 0.00 | 66 | 1017.1 |
| 20260906150427 | 15 | 110 | 1.6 | 1.6 | 0.00 | 0.00 | 0.00 | 66 | 1017.3 |
| 20260906145926 | 15 | 110 | 0.0 | 1.6 | 0.00 | 0.00 | 0.00 | 67 | 1017.4 |
| 20260906145426 | 14 | 111 | 0.0 | 0.0 | 0.00 | 0.00 | 0.00 | 69 | 1017.5 |
| 20260906144920 | 14 | 111 | 3.2 | 3.2 | 0.00 | 0.00 | 0.00 | 70 | 1017.6 |
| 20260906144415 | 14 | 122 | 4.8 | 4.8 | 0.00 | 0.00 | 0.00 | 72 | 1017.1 |
| 20260906143910 | 13 | 126 | 1.6 | 3.2 | 0.00 | 0.00 | 0.00 | 71 | 1017.3 |
| 20260906143406 | 13 | 126 | 1.6 | 3.2 | 0.00 | 0.00 | 0.00 | 73 | 1017.3 |
| 20260906142902 | 13 | 130 | 3.2 | 3.2 | 0.00 | 0.00 | 0.00 | 75 | 1017.3 |
| 20260906142355 | 13 | 130 | 4.8 | 4.8 | 0.00 | 0.00 | 0.00 | 74 | 1017.3 |
| 20260906141850 | 12 | 154 | 0.0 | 1.6 | 0.00 | 0.00 | 0.00 | 75 | 1017.4 |
| 20260906141344 | 12 | 153 | 1.6 | 3.2 | 0.00 | 0.00 | 0.00 | 77 | 1017.2 |
| 20260906140844 | 11 | 164 | 1.6 | 1.6 | 0.00 | 0.00 | 0.00 | 80 | 1017.6 |
| 20260906140339 | 11 | 171 | 1.6 | 1.6 | 0.00 | 0.00 | 0.00 | 80 | 1017.2 |
| 20260906135836 | 11 | 203 | 1.6 | 1.6 | 0.00 | 0.00 | 0.00 | 81 | 1017.1 |
| 20260906135331 | 10 | 224 | 0.0 | 0.0 | 0.00 | 0.00 | 0.00 | 83 | 1017.3 |
| 20260906134827 | 9 | 225 | 0.0 | 0.0 | 0.00 | 0.00 | 0.00 | 84 | 1016.9 |
| 20260906134322 | 8 | 287 | 1.6 | 1.6 | 0.00 | 0.00 | 0.00 | 83 | 1017.1 |
| 20260906133818 | 8 | 304 | 4.8 | 4.8 | 0.00 | 0.00 | 0.00 | 82 | 1016.8 |
| 20260906133313 | 8 | 260 | 3.2 | 3.2 | 0.00 | 0.00 | 0.00 | 82 | 1016.9 |
| 20260906132808 | 8 | 235 | 1.6 | 1.6 | 0.00 | 0.00 | 0.00 | 81 | 1016.8 |
| 20260906132306 | 8 | 218 | 0.0 | 0.0 | 0.00 | 0.00 | 0.00 | 80 | 1016.6 |
| 20260906131759 | 9 | 218 | 0.0 | 0.0 | 0.00 | 0.00 | 0.00 | 79 | 1016.7 |
| 20260906131253 | 9 | 217 | 0.0 | 0.0 | 0.00 | 0.00 | 0.00 | 79 | 1016.7 |
| 20260906130749 | 9 | 217 | 0.0 | 1.6 | 0.00 | 0.00 | 0.00 | 80 | 1016.6 |
| 20260906130244 | 9 | 217 | 0.0 | 0.0 | 0.00 | 0.00 | 0.00 | 78 | 1016.8 |
| 20260906125743 | 10 | 217 | 0.0 | 0.0 | 0.00 | 0.00 | 0.00 | 79 | 1016.7 |
| 20260906125241 | 10 | 218 | 1.6 | 1.6 | 0.00 | 0.00 | 0.00 | 79 | 1016.4 |
| 20260906124735 | 9 | 226 | 1.6 | 3.2 | 0.00 | 0.00 | 0.00 | 81 | 1016.4 |
| 20260906124231 | 9 | 213 | 1.6 | 3.2 | 0.00 | 0.00 | 0.00 | 81 | 1016.2 |
| 20260906123730 | 9 | 213 | 1.6 | 1.6 | 0.00 | 0.00 | 0.00 | 82 | 1016.1 |
| 20260906123226 | 9 | 213 | 1.6 | 1.6 | 0.00 | 0.00 | 0.00 | 81 | 1016.6 |
| 20260906122725 | 8 | 213 | 1.6 | 1.6 | 0.00 | 0.00 | 0.00 | 82 | 1016.5 |
| 20260906122220 | 8 | 213 | 1.6 | 1.6 | 0.00 | 0.00 | 0.00 | 82 | 1016.2 |
| 20260906121717 | 8 | 213 | 0.0 | 0.0 | 0.00 | 0.00 | 0.00 | 81 | 1016.1 |
| 20260906121213 | 8 | 213 | 0.0 | 0.0 | 0.00 | 0.00 | 0.00 | 80 | 1016.4 |
| 20260906120708 | 9 | 213 | 0.0 | 0.0 | 0.00 | 0.00 | 0.00 | 78 | 1016.5 |
| 20260906120205 | 10 | 213 | 1.6 | 3.2 | 0.00 | 0.00 | 0.00 | 78 | 1016.2 |
| 20260906115700 | 9 | 215 | 1.6 | 3.2 | 0.00 | 0.00 | 0.00 | 79 | 1016.5 |
| 20260906115155 | 9 | 221 | 0.0 | 0.0 | 0.00 | 0.00 | 0.00 | 79 | 1016.4 |
| 20260906114654 | 9 | 221 | 0.0 | 0.0 | 0.00 | 0.00 | 0.00 | 79 | 1016.6 |
| 20260906114149 | 9 | 222 | 0.0 | 0.0 | 0.00 | 0.00 | 0.00 | 78 | 1016.2 |
| 20260906113644 | 10 | 221 | 0.0 | 0.0 | 0.00 | 0.00 | 0.00 | 78 | 1016.1 |
| 20260906113144 | 10 | 221 | 0.0 | 0.0 | 0.00 | 0.00 | 0.00 | 77 | 1016.0 |
| 20260906112643 | 10 | 221 | 0.0 | 0.0 | 0.00 | 0.00 | 0.00 | 79 | 1016.1 |
| 20260906112141 | 9 | 215 | 0.0 | 0.0 | 0.00 | 0.00 | 0.00 | 79 | 1016.0 |
| 20260906111639 | 9 | 215 | 0.0 | 0.0 | 0.00 | 0.00 | 0.00 | 78 | 1015.9 |
| 20260906111134 | 10 | 215 | 0.0 | 0.0 | 0.00 | 0.00 | 0.00 | 78 | 1016.2 |
| 20260906110629 | 10 | 215 | 0.0 | 0.0 | 0.00 | 0.00 | 0.00 | 77 | 1016.2 |
| 20260906110124 | 10 | 215 | 0.0 | 0.0 | 0.00 | 0.00 | 0.00 | 77 | 1016.0 |
| 20260906105618 | 10 | 215 | 0.0 | 0.0 | 0.00 | 0.00 | 0.00 | 77 | 1016.1 |
| 20260906105115 | 10 | 215 | 0.0 | 0.0 | 0.00 | 0.00 | 0.00 | 76 | 1015.9 |
| 20260906104614 | 11 | 215 | 0.0 | 0.0 | 0.00 | 0.00 | 0.00 | 75 | 1016.0 |
| 20260906104108 | 11 | 215 | 0.0 | 0.0 | 0.00 | 0.00 | 0.00 | 72 | 1016.0 |
| 20260906103606 | 12 | 215 | 0.0 | 0.0 | 0.00 | 0.00 | 0.00 | 70 | 1015.9 |
| 20260906103102 | 12 | 214 | 1.6 | 1.6 | 0.00 | 0.00 | 0.00 | 68 | 1015.9 |
| 20260906102602 | 13 | 218 | 6.4 | 8.0 | 0.00 | 0.00 | 0.00 | 67 | 1015.7 |
| 20260906102056 | 13 | 216 | 8.0 | 8.0 | 0.00 | 0.00 | 0.00 | 66 | 1015.8 |
| 20260906101551 | 13 | 223 | 8.0 | 11.3 | 0.00 | 0.00 | 0.00 | 65 | 1015.7 |
| 20260906101045 | 13 | 224 | 8.0 | 9.7 | 0.00 | 0.00 | 0.00 | 66 | 1015.4 |
| 20260906100541 | 13 | 231 | 9.7 | 11.3 | 0.00 | 0.00 | 0.00 | 66 | 1015.6 |
| 20260906100042 | 13 | 221 | 4.8 | 8.0 | 0.00 | 0.00 | 0.00 | 66 | 1015.6 |
| 20260906095536 | 13 | 219 | 8.0 | 9.7 | 0.00 | 0.00 | 0.00 | 65 | 1015.3 |
| 20260906095032 | 13 | 231 | 6.4 | 8.0 | 0.00 | 0.00 | 0.00 | 66 | 1015.3 |
| 20260906094530 | 13 | 218 | 4.8 | 8.0 | 0.00 | 0.00 | 0.00 | 65 | 1015.1 |
| 20260906094027 | 14 | 226 | 6.4 | 8.0 | 0.00 | 0.00 | 0.00 | 65 | 1015.0 |
| 20260906093522 | 14 | 226 | 8.0 | 8.0 | 0.00 | 0.00 | 0.00 | 65 | 1015.0 |
| 20260906093022 | 14 | 237 | 6.4 | 8.0 | 0.00 | 0.00 | 0.00 | 66 | 1014.9 |
| 20260906092517 | 15 | 235 | 4.8 | 4.8 | 0.00 | 0.00 | 0.00 | 65 | 1014.8 |
| 20260906092013 | 15 | 274 | 4.8 | 4.8 | 0.00 | 0.00 | 0.00 | 64 | 1014.6 |
| 20260906091508 | 15 | 236 | 4.8 | 4.8 | 0.00 | 0.00 | 0.00 | 65 | 1014.6 |
| 20260906091005 | 14 | 239 | 4.8 | 4.8 | 0.00 | 0.00 | 0.00 | 66 | 1014.4 |
| 20260906090504 | 14 | 228 | 4.8 | 4.8 | 0.00 | 0.00 | 0.00 | 65 | 1014.3 |
| 20260906085959 | 15 | 239 | 3.2 | 3.2 | 0.00 | 0.00 | 0.00 | 65 | 1014.5 |
| 20260906085458 | 13 | 238 | 1.6 | 1.6 | 0.00 | 0.00 | 0.00 | 62 | 1014.1 |
| 20260906084957 | 11 | 241 | 1.6 | 1.6 | 0.00 | 0.00 | 0.00 | 63 | 1014.1 |
| 20260906084452 | 11 | 250 | 0.0 | 0.0 | 0.00 | 0.00 | 0.00 | 66 | 1014.1 |
| 20260906083951 | 12 | 270 | 3.2 | 3.2 | 0.00 | 0.00 | 0.00 | 65 | 1013.8 |
| 20260906083447 | 11 | 309 | 3.2 | 3.2 | 0.00 | 0.00 | 0.00 | 69 | 1013.9 |
| 20260906082946 | 11 | 309 | 4.8 | 4.8 | 0.00 | 0.00 | 0.00 | 67 | 1013.6 |
| 20260906082442 | 9 | 309 | 1.6 | 1.6 | 0.00 | 0.00 | 0.00 | 77 | 1013.9 |
| 20260906081937 | 9 | 308 | 0.0 | 0.0 | 0.00 | 0.00 | 0.00 | 78 | 1013.9 |
| 20260906081432 | 10 | 308 | 0.0 | 0.0 | 0.00 | 0.00 | 0.00 | 77 | 1013.8 |
| 20260906080929 | 10 | 308 | 0.0 | 1.6 | 0.00 | 0.00 | 0.00 | 76 | 1013.7 |
| 20260906080425 | 10 | 308 | 1.6 | 1.6 | 0.00 | 0.00 | 0.00 | 76 | 1013.8 |
| 20260906075925 | 10 | 308 | 0.0 | 1.6 | 0.00 | 0.00 | 0.00 | 76 | 1013.9 |
| 20260906075420 | 10 | 250 | 0.0 | 0.0 | 0.00 | 0.00 | 0.00 | 75 | 1014.1 |
| 20260906074915 | 10 | 294 | 4.8 | 4.8 | 0.00 | 0.00 | 0.00 | 75 | 1014.2 |
| 20260906074409 | 10 | 306 | 3.2 | 4.8 | 0.00 | 0.00 | 0.00 | 78 | 1014.3 |
| 20260906073908 | 10 | 262 | 3.2 | 3.2 | 0.00 | 0.00 | 0.00 | 77 | 1014.2 |
| 20260906073403 | 10 | 268 | 1.6 | 1.6 | 0.00 | 0.00 | 0.00 | 77 | 1013.8 |
| 20260906072859 | 10 | 268 | 3.2 | 3.2 | 0.00 | 0.00 | 0.00 | 76 | 1013.7 |
| 20260906072354 | 11 | 257 | 3.2 | 3.2 | 0.00 | 0.00 | 0.00 | 75 | 1013.8 |
| 20260906071850 | 11 | 256 | 1.6 | 3.2 | 0.00 | 0.00 | 0.00 | 74 | 1013.6 |
| 20260906071345 | 11 | 251 | 1.6 | 1.6 | 0.00 | 0.00 | 0.00 | 74 | 1013.9 |
| 20260906070841 | 11 | 215 | 0.0 | 0.0 | 0.00 | 0.00 | 0.00 | 72 | 1013.7 |
| 20260906070337 | 11 | 223 | 1.6 | 1.6 | 0.00 | 0.00 | 0.00 | 72 | 1013.9 |
| 20260906065832 | 11 | 226 | 1.6 | 1.6 | 0.00 | 0.00 | 0.00 | 72 | 1013.9 |
| 20260906065326 | 11 | 236 | 1.6 | 1.6 | 0.00 | 0.00 | 0.00 | 71 | 1013.6 |
| 20260906064822 | 12 | 212 | 3.2 | 3.2 | 0.00 | 0.00 | 0.00 | 67 | 1013.9 |
| 20260906064319 | 12 | 217 | 4.8 | 4.8 | 0.00 | 0.00 | 0.00 | 65 | 1013.9 |
| 20260906063813 | 12 | 250 | 1.6 | 1.6 | 0.00 | 0.00 | 0.00 | 63 | 1013.9 |
| 20260906063309 | 12 | 230 | 1.6 | 1.6 | 0.00 | 0.00 | 0.00 | 64 | 1013.9 |
| 20260906062803 | 12 | 238 | 0.0 | 0.0 | 0.00 | 0.00 | 0.00 | 62 | 1014.1 |
| 20260906062305 | 13 | 225 | 0.0 | 0.0 | 0.00 | 0.00 | 0.00 | 61 | 1014.1 |
| 20260906061758 | 13 | 250 | 0.0 | 0.0 | 0.00 | 0.00 | 0.00 | 62 | 1014.1 |
| 20260906061255 | 13 | 252 | 1.6 | 1.6 | 0.00 | 0.00 | 0.00 | 62 | 1013.9 |
| 20260906060749 | 14 | 236 | 0.0 | 1.6 | 0.00 | 0.00 | 0.00 | 56 | 1014.1 |
| 20260906060247 | 14 | 257 | 1.6 | 3.2 | 0.00 | 0.00 | 0.00 | 57 | 1014.1 |
| 20260906055742 | 14 | 240 | 0.0 | 0.0 | 0.00 | 0.00 | 0.00 | 54 | 1014.1 |
| 20260906055238 | 14 | 240 | 0.0 | 0.0 | 0.00 | 0.00 | 0.00 | 54 | 1014.2 |
| 20260906054733 | 14 | 240 | 0.0 | 0.0 | 0.00 | 0.00 | 0.00 | 54 | 1014.4 |
| 20260906054228 | 15 | 252 | 0.0 | 1.6 | 0.00 | 0.00 | 0.00 | 52 | 1014.4 |
| 20260906053724 | 15 | 269 | 1.6 | 1.6 | 0.00 | 0.00 | 0.00 | 50 | 1014.5 |
| 20260906053220 | 15 | 293 | 3.2 | 3.2 | 0.00 | 0.00 | 0.00 | 48 | 1014.8 |
| 20260906052715 | 14 | 251 | 0.0 | 0.0 | 0.00 | 0.00 | 0.00 | 51 | 1014.8 |
| 20260906052211 | 13 | 239 | 0.0 | 0.0 | 0.00 | 0.00 | 0.00 | 55 | 1014.8 |
| 20260906051708 | 13 | 244 | 0.0 | 0.0 | 0.00 | 0.00 | 0.00 | 55 | 1015.0 |
| 20260906051207 | 13 | 257 | 1.6 | 1.6 | 0.00 | 0.00 | 0.00 | 56 | 1014.9 |
| 20260906050703 | 13 | 258 | 1.6 | 1.6 | 0.00 | 0.00 | 0.00 | 59 | 1015.0 |
| 20260906050158 | 13 | 272 | 1.6 | 3.2 | 0.00 | 0.00 | 0.00 | 59 | 1015.1 |
| 20260906045656 | 13 | 256 | 1.6 | 3.2 | 0.00 | 0.00 | 0.00 | 58 | 1015.1 |
| 20260906045151 | 13 | 185 | 1.6 | 1.6 | 0.00 | 0.00 | 0.00 | 58 | 1015.2 |
| 20260906044647 | 15 | 183 | 1.6 | 1.6 | 0.00 | 0.00 | 0.00 | 56 | 1015.2 |
| 20260906044142 | 15 | 176 | 1.6 | 1.6 | 0.00 | 0.00 | 0.00 | 53 | 1015.2 |
| 20260906043639 | 15 | 173 | 1.6 | 1.6 | 0.00 | 0.00 | 0.00 | 52 | 1015.4 |
| 20260906043134 | 15 | 173 | 1.6 | 1.6 | 0.00 | 0.00 | 0.00 | 50 | 1015.1 |
| 20260906042633 | 15 | 172 | 0.0 | 0.0 | 0.00 | 0.00 | 0.00 | 51 | 1015.1 |
| 20260906042128 | 16 | 171 | 0.0 | 0.0 | 0.00 | 0.00 | 0.00 | 47 | 1015.4 |
| 20260906041623 | 16 | 171 | 0.0 | 0.0 | 0.00 | 0.00 | 0.00 | 46 | 1015.2 |
| 20260906041118 | 16 | 158 | 0.0 | 0.0 | 0.00 | 0.00 | 0.00 | 45 | 1015.6 |
| 20260906040614 | 17 | 157 | 0.0 | 0.0 | 0.00 | 0.00 | 0.00 | 46 | 1015.3 |
| 20260906040109 | 17 | 174 | 3.2 | 3.2 | 0.00 | 0.00 | 0.00 | 46 | 1015.7 |
| 20260906035604 | 17 | 158 | 1.6 | 1.6 | 0.00 | 0.00 | 0.00 | 46 | 1015.6 |
| 20260906035100 | 17 | 158 | 4.8 | 4.8 | 0.00 | 0.00 | 0.00 | 46 | 1015.6 |
| 20260906034600 | 18 | 150 | 3.2 | 3.2 | 0.00 | 0.00 | 0.00 | 47 | 1015.4 |
| 20260906034054 | 18 | 172 | 4.8 | 4.8 | 0.00 | 0.00 | 0.00 | 44 | 1015.4 |
| 20260906033550 | 18 | 154 | 4.8 | 4.8 | 0.00 | 0.00 | 0.00 | 44 | 1015.7 |
| 20260906033045 | 19 | 155 | 1.6 | 3.2 | 0.00 | 0.00 | 0.00 | 45 | 1015.6 |
| 20260906032542 | 19 | 135 | 3.2 | 3.2 | 0.00 | 0.00 | 0.00 | 44 | 1015.6 |
| 20260906032036 | 19 | 149 | 3.2 | 3.2 | 0.00 | 0.00 | 0.00 | 44 | 1015.7 |
| 20260906031532 | 19 | 161 | 3.2 | 3.2 | 0.00 | 0.00 | 0.00 | 44 | 1015.7 |
| 20260906031028 | 19 | 131 | 4.8 | 4.8 | 0.00 | 0.00 | 0.00 | 44 | 1015.4 |
| 20260906030527 | 19 | 159 | 3.2 | 3.2 | 0.00 | 0.00 | 0.00 | 45 | 1015.4 |
| 20260906030026 | 19 | 170 | 1.6 | 1.6 | 0.00 | 0.00 | 0.00 | 44 | 1015.6 |
| 20260906025526 | 19 | 170 | 1.6 | 1.6 | 0.00 | 0.00 | 0.00 | 46 | 1015.6 |
| 20260906025024 | 20 | 186 | 1.6 | 1.6 | 0.00 | 0.00 | 0.00 | 45 | 1015.4 |
| 20260906024519 | 20 | 161 | 3.2 | 3.2 | 0.00 | 0.00 | 0.00 | 44 | 1015.7 |
| 20260906024014 | 20 | 198 | 1.6 | 1.6 | 0.00 | 0.00 | 0.00 | 44 | 1015.3 |
| 20260906023510 | 20 | 222 | 1.6 | 1.6 | 0.00 | 0.00 | 0.00 | 47 | 1015.2 |
| 20260906023004 | 20 | 223 | 1.6 | 1.6 | 0.00 | 0.00 | 0.00 | 47 | 1015.2 |
| 20260906022500 | 20 | 225 | 1.6 | 1.6 | 0.00 | 0.00 | 0.00 | 47 | 1015.0 |
| 20260906021955 | 19 | 225 | 1.6 | 1.6 | 0.00 | 0.00 | 0.00 | 48 | 1015.2 |
| 20260906021450 | 19 | 225 | 0.0 | 0.0 | 0.00 | 0.00 | 0.00 | 49 | 1015.1 |
| 20260906020944 | 20 | 225 | 0.0 | 0.0 | 0.00 | 0.00 | 0.00 | 48 | 1015.2 |
| 20260906020439 | 20 | 225 | 0.0 | 0.0 | 0.00 | 0.00 | 0.00 | 49 | 1015.4 |
| 20260906015933 | 20 | 225 | 1.6 | 1.6 | 0.00 | 0.00 | 0.00 | 48 | 1015.1 |
| 20260906015432 | 21 | 226 | 1.6 | 1.6 | 0.00 | 0.00 | 0.00 | 49 | 1015.1 |
| 20260906014926 | 21 | 235 | 0.0 | 0.0 | 0.00 | 0.00 | 0.00 | 43 | 1015.1 |
| 20260906014426 | 22 | 235 | 0.0 | 0.0 | 0.00 | 0.00 | 0.00 | 42 | 1015.1 |
| 20260906013922 | 22 | 235 | 0.0 | 0.0 | 0.00 | 0.00 | 0.00 | 40 | 1015.1 |
| 20260906013418 | 22 | 235 | 0.0 | 0.0 | 0.00 | 0.00 | 0.00 | 39 | 1015.4 |
| 20260906012914 | 22 | 235 | 0.0 | 0.0 | 0.00 | 0.00 | 0.00 | 39 | 1015.2 |
| 20260906012408 | 23 | 235 | 0.0 | 0.0 | 0.00 | 0.00 | 0.00 | 39 | 1015.2 |
| 20260906011907 | 23 | 235 | 0.0 | 0.0 | 0.00 | 0.00 | 0.00 | 37 | 1015.2 |
| 20260906011402 | 23 | 235 | 0.0 | 0.0 | 0.00 | 0.00 | 0.00 | 37 | 1015.2 |
| 20260906010858 | 23 | 235 | 0.0 | 0.0 | 0.00 | 0.00 | 0.00 | 38 | 1015.3 |
| 20260906010354 | 24 | 235 | 0.0 | 0.0 | 0.00 | 0.00 | 0.00 | 36 | 1015.2 |
| 20260906005850 | 25 | 235 | 0.0 | 0.0 | 0.00 | 0.00 | 0.00 | 36 | 1015.3 |
| 20260906005349 | 25 | 235 | 0.0 | 0.0 | 0.00 | 0.00 | 0.00 | 34 | 1015.2 |
| 20260906004847 | 26 | 236 | 0.0 | 0.0 | 0.00 | 0.00 | 0.00 | 34 | 1015.1 |
| 20260906004347 | 26 | 236 | 0.0 | 0.0 | 0.00 | 0.00 | 0.00 | 32 | 1015.4 |
| 20260906003842 | 27 | 236 | 1.6 | 1.6 | 0.00 | 0.00 | 0.00 | 30 | 1015.2 |
| 20260906003338 | 28 | 235 | 0.0 | 0.0 | 0.00 | 0.00 | 0.00 | 29 | 1015.1 |
| 20260906002833 | 29 | 237 | 0.0 | 1.6 | 0.00 | 0.00 | 0.00 | 28 | 1015.2 |
| 20260906002332 | 29 | 237 | 0.0 | 0.0 | 0.00 | 0.00 | 0.00 | 29 | 1015.1 |
| 20260906001828 | 29 | 237 | 0.0 | 1.6 | 0.00 | 0.00 | 0.00 | 30 | 1015.3 |
| 20260906001324 | 29 | 237 | 0.0 | 0.0 | 0.00 | 0.00 | 0.00 | 31 | 1015.1 |
| 20260906000819 | 29 | 237 | 0.0 | 0.0 | 0.00 | 0.00 | 0.00 | 29 | 1015.1 |
| 20260906000313 | 29 | 243 | 0.0 | 0.0 | 0.00 | 0.00 | 0.00 | 30 | 1015.1 |
| 20260905235808 | 28 | 229 | 0.0 | 0.0 | 0.00 | 0.00 | 0.00 | 29 | 1015.3 |
| 20260905235306 | 28 | 242 | 1.6 | 1.6 | 0.00 | 0.00 | 0.00 | 30 | 1015.3 |